sensor_id;sensor_type;location;lat;lon;timestamp;pressure;altitude;pressure_sealevel;temperature;humidity
76726;BME280;65651;53.154;17.916;2023-04-25T00:01:07;99745.45;;;10.68;82.20
76726;BME280;65651;53.154;17.916;2023-04-25T00:03:37;99749.38;;;10.67;82.21
76726;BME280;65651;53.154;17.916;2023-04-25T00:06:06;99751.84;;;10.66;82.41
76726;BME280;65651;53.154;17.916;2023-04-25T00:08:34;99744.30;;;10.64;82.29
76726;BME280;65651;53.154;17.916;2023-04-25T00:11:01;99744.07;;;10.63;82.25
76726;BME280;65651;53.154;17.916;2023-04-25T00:13:28;99745.15;;;10.61;82.14
76726;BME280;65651;53.154;17.916;2023-04-25T00:15:56;99746.38;;;10.58;82.12
76726;BME280;65651;53.154;17.916;2023-04-25T00:18:24;99751.42;;;10.55;81.94
76726;BME280;65651;53.154;17.916;2023-04-25T00:20:51;99751.11;;;10.51;81.93
76726;BME280;65651;53.154;17.916;2023-04-25T00:23:19;99750.41;;;10.47;81.84
76726;BME280;65651;53.154;17.916;2023-04-25T00:25:47;99753.98;;;10.44;81.71
76726;BME280;65651;53.154;17.916;2023-04-25T00:28:15;99752.11;;;10.40;81.72
76726;BME280;65651;53.154;17.916;2023-04-25T00:30:43;99752.14;;;10.35;81.59
76726;BME280;65651;53.154;17.916;2023-04-25T00:33:10;99753.94;;;10.30;81.59
76726;BME280;65651;53.154;17.916;2023-04-25T00:35:40;99761.55;;;10.24;81.59
76726;BME280;65651;53.154;17.916;2023-04-25T00:38:08;99764.29;;;10.18;81.54
76726;BME280;65651;53.154;17.916;2023-04-25T00:40:35;99767.67;;;10.15;81.51
76726;BME280;65651;53.154;17.916;2023-04-25T00:43:04;99766.73;;;10.10;81.52
76726;BME280;65651;53.154;17.916;2023-04-25T00:45:38;99771.98;;;10.07;81.29
76726;BME280;65651;53.154;17.916;2023-04-25T00:48:06;99774.33;;;10.04;81.26
76726;BME280;65651;53.154;17.916;2023-04-25T00:50:33;99776.73;;;10.00;80.85
76726;BME280;65651;53.154;17.916;2023-04-25T00:53:01;99778.53;;;9.96;80.69
76726;BME280;65651;53.154;17.916;2023-04-25T00:55:29;99779.80;;;9.91;80.56
76726;BME280;65651;53.154;17.916;2023-04-25T00:57:58;99779.60;;;9.86;80.43
76726;BME280;65651;53.154;17.916;2023-04-25T01:00:26;99780.14;;;9.81;80.07
76726;BME280;65651;53.154;17.916;2023-04-25T01:02:53;99783.20;;;9.77;80.14
76726;BME280;65651;53.154;17.916;2023-04-25T01:05:21;99785.86;;;9.74;79.94
76726;BME280;65651;53.154;17.916;2023-04-25T01:07:49;99784.98;;;9.71;80.23
76726;BME280;65651;53.154;17.916;2023-04-25T01:10:17;99784.73;;;9.68;79.90
76726;BME280;65651;53.154;17.916;2023-04-25T01:12:44;99783.44;;;9.66;79.66
76726;BME280;65651;53.154;17.916;2023-04-25T01:15:11;99782.51;;;9.65;79.90
76726;BME280;65651;53.154;17.916;2023-04-25T01:17:40;99780.39;;;9.63;80.13
76726;BME280;65651;53.154;17.916;2023-04-25T01:20:08;99781.91;;;9.60;79.77
76726;BME280;65651;53.154;17.916;2023-04-25T01:22:36;99780.10;;;9.57;79.78
76726;BME280;65651;53.154;17.916;2023-04-25T01:25:04;99777.06;;;9.54;79.46
76726;BME280;65651;53.154;17.916;2023-04-25T01:27:32;99781.56;;;9.52;79.41
76726;BME280;65651;53.154;17.916;2023-04-25T01:30:00;99783.45;;;9.49;79.41
76726;BME280;65651;53.154;17.916;2023-04-25T01:32:28;99783.18;;;9.47;79.26
76726;BME280;65651;53.154;17.916;2023-04-25T01:34:58;99786.54;;;9.43;79.18
76726;BME280;65651;53.154;17.916;2023-04-25T01:37:29;99786.53;;;9.42;79.04
76726;BME280;65651;53.154;17.916;2023-04-25T01:39:57;99784.03;;;9.38;79.27
76726;BME280;65651;53.154;17.916;2023-04-25T01:42:24;99785.42;;;9.34;79.29
76726;BME280;65651;53.154;17.916;2023-04-25T01:44:52;99789.08;;;9.33;79.27
76726;BME280;65651;53.154;17.916;2023-04-25T01:47:20;99788.34;;;9.30;79.39
76726;BME280;65651;53.154;17.916;2023-04-25T01:49:47;99790.72;;;9.27;79.35
76726;BME280;65651;53.154;17.916;2023-04-25T01:52:15;99789.91;;;9.25;79.53
76726;BME280;65651;53.154;17.916;2023-04-25T01:54:43;99792.50;;;9.24;79.49
76726;BME280;65651;53.154;17.916;2023-04-25T01:57:12;99796.77;;;9.21;79.47
76726;BME280;65651;53.154;17.916;2023-04-25T01:59:43;99799.46;;;9.17;79.60
76726;BME280;65651;53.154;17.916;2023-04-25T02:02:39;99799.36;;;9.13;79.66
76726;BME280;65651;53.154;17.916;2023-04-25T02:05:13;99801.71;;;9.07;79.75
76726;BME280;65651;53.154;17.916;2023-04-25T02:07:43;99803.06;;;9.03;79.81
76726;BME280;65651;53.154;17.916;2023-04-25T02:10:10;99800.27;;;8.99;79.70
76726;BME280;65651;53.154;17.916;2023-04-25T02:12:52;99806.95;;;8.95;79.81
76726;BME280;65651;53.154;17.916;2023-04-25T02:15:48;99810.39;;;8.89;79.84
76726;BME280;65651;53.154;17.916;2023-04-25T02:18:18;99810.92;;;8.84;79.98
76726;BME280;65651;53.154;17.916;2023-04-25T02:20:45;99814.61;;;8.79;80.07
76726;BME280;65651;53.154;17.916;2023-04-25T02:23:13;99812.65;;;8.76;80.07
76726;BME280;65651;53.154;17.916;2023-04-25T02:25:42;99813.00;;;8.72;80.11
76726;BME280;65651;53.154;17.916;2023-04-25T02:28:12;99814.78;;;8.70;80.05
76726;BME280;65651;53.154;17.916;2023-04-25T02:30:39;99816.29;;;8.65;80.18
76726;BME280;65651;53.154;17.916;2023-04-25T02:33:07;99815.59;;;8.59;80.05
76726;BME280;65651;53.154;17.916;2023-04-25T02:35:36;99814.00;;;8.55;80.36
76726;BME280;65651;53.154;17.916;2023-04-25T02:38:06;99816.98;;;8.52;80.30
76726;BME280;65651;53.154;17.916;2023-04-25T02:40:33;99818.69;;;8.48;80.22
76726;BME280;65651;53.154;17.916;2023-04-25T02:43:01;99816.61;;;8.41;80.31
76726;BME280;65651;53.154;17.916;2023-04-25T02:45:28;99819.96;;;8.36;80.23
76726;BME280;65651;53.154;17.916;2023-04-25T02:47:56;99822.41;;;8.31;80.52
76726;BME280;65651;53.154;17.916;2023-04-25T02:50:23;99822.93;;;8.29;80.34
76726;BME280;65651;53.154;17.916;2023-04-25T02:52:51;99821.88;;;8.26;79.99
76726;BME280;65651;53.154;17.916;2023-04-25T02:55:22;99821.88;;;8.20;80.36
76726;BME280;65651;53.154;17.916;2023-04-25T02:57:49;99827.90;;;8.14;80.28
76726;BME280;65651;53.154;17.916;2023-04-25T03:00:25;99827.29;;;8.07;80.40
76726;BME280;65651;53.154;17.916;2023-04-25T03:02:52;99825.98;;;8.02;80.62
76726;BME280;65651;53.154;17.916;2023-04-25T03:05:20;99829.30;;;7.99;80.33
76726;BME280;65651;53.154;17.916;2023-04-25T03:07:47;99830.38;;;7.94;80.53
76726;BME280;65651;53.154;17.916;2023-04-25T03:10:16;99825.48;;;7.89;80.37
76726;BME280;65651;53.154;17.916;2023-04-25T03:12:43;99826.36;;;7.85;80.29
76726;BME280;65651;53.154;17.916;2023-04-25T03:15:11;99824.79;;;7.81;80.20
76726;BME280;65651;53.154;17.916;2023-04-25T03:17:38;99830.48;;;7.76;80.29
76726;BME280;65651;53.154;17.916;2023-04-25T03:20:08;99829.60;;;7.70;80.07
76726;BME280;65651;53.154;17.916;2023-04-25T03:22:36;99830.95;;;7.64;80.18
76726;BME280;65651;53.154;17.916;2023-04-25T03:25:03;99831.64;;;7.58;80.26
76726;BME280;65651;53.154;17.916;2023-04-25T03:27:32;99825.90;;;7.53;80.33
76726;BME280;65651;53.154;17.916;2023-04-25T03:29:59;99830.33;;;7.48;80.43
76726;BME280;65651;53.154;17.916;2023-04-25T03:32:27;99831.31;;;7.45;80.39
76726;BME280;65651;53.154;17.916;2023-04-25T03:34:54;99831.43;;;7.42;80.36
76726;BME280;65651;53.154;17.916;2023-04-25T03:37:23;99834.34;;;7.38;80.83
76726;BME280;65651;53.154;17.916;2023-04-25T03:39:51;99834.18;;;7.33;80.45
76726;BME280;65651;53.154;17.916;2023-04-25T03:42:19;99838.13;;;7.32;80.59
76726;BME280;65651;53.154;17.916;2023-04-25T03:44:47;99836.02;;;7.29;80.57
76726;BME280;65651;53.154;17.916;2023-04-25T03:47:15;99838.08;;;7.26;80.34
76726;BME280;65651;53.154;17.916;2023-04-25T03:49:45;99839.78;;;7.23;80.49
76726;BME280;65651;53.154;17.916;2023-04-25T03:52:12;99846.74;;;7.23;80.55
76726;BME280;65651;53.154;17.916;2023-04-25T03:54:41;99850.71;;;7.22;80.61
76726;BME280;65651;53.154;17.916;2023-04-25T03:57:20;99853.27;;;7.24;80.51
76726;BME280;65651;53.154;17.916;2023-04-25T03:59:47;99856.64;;;7.24;80.74
76726;BME280;65651;53.154;17.916;2023-04-25T04:02:15;99859.58;;;7.25;80.62
76726;BME280;65651;53.154;17.916;2023-04-25T04:04:43;99863.39;;;7.25;80.57
76726;BME280;65651;53.154;17.916;2023-04-25T04:07:11;99862.20;;;7.24;80.41
76726;BME280;65651;53.154;17.916;2023-04-25T04:09:41;99865.92;;;7.24;80.63
76726;BME280;65651;53.154;17.916;2023-04-25T04:12:13;99866.79;;;7.26;80.44
76726;BME280;65651;53.154;17.916;2023-04-25T04:14:41;99867.73;;;7.30;80.57
76726;BME280;65651;53.154;17.916;2023-04-25T04:17:11;99872.35;;;7.34;80.46
76726;BME280;65651;53.154;17.916;2023-04-25T04:19:38;99876.55;;;7.35;80.38
76726;BME280;65651;53.154;17.916;2023-04-25T04:22:12;99881.91;;;7.35;80.27
76726;BME280;65651;53.154;17.916;2023-04-25T04:24:40;99885.05;;;7.35;80.51
76726;BME280;65651;53.154;17.916;2023-04-25T04:27:11;99884.60;;;7.37;80.14
76726;BME280;65651;53.154;17.916;2023-04-25T04:29:49;99882.23;;;7.39;80.35
76726;BME280;65651;53.154;17.916;2023-04-25T04:32:35;99885.96;;;7.43;79.95
76726;BME280;65651;53.154;17.916;2023-04-25T04:35:04;99889.90;;;7.44;80.14
76726;BME280;65651;53.154;17.916;2023-04-25T04:37:33;99889.24;;;7.46;79.99
76726;BME280;65651;53.154;17.916;2023-04-25T04:40:02;99892.27;;;7.44;80.06
76726;BME280;65651;53.154;17.916;2023-04-25T04:42:50;99895.61;;;7.42;80.12
76726;BME280;65651;53.154;17.916;2023-04-25T04:45:37;99896.66;;;7.41;79.96
76726;BME280;65651;53.154;17.916;2023-04-25T04:48:27;99894.92;;;7.40;79.90
76726;BME280;65651;53.154;17.916;2023-04-25T04:51:10;99893.17;;;7.42;79.90
76726;BME280;65651;53.154;17.916;2023-04-25T04:53:58;99893.90;;;7.46;79.81
76726;BME280;65651;53.154;17.916;2023-04-25T04:56:41;99892.29;;;7.51;79.41
76726;BME280;65651;53.154;17.916;2023-04-25T04:59:37;99895.64;;;7.52;79.19
76726;BME280;65651;53.154;17.916;2023-04-25T05:02:38;99898.80;;;7.47;79.47
76726;BME280;65651;53.154;17.916;2023-04-25T05:05:24;99899.64;;;7.47;79.47
76726;BME280;65651;53.154;17.916;2023-04-25T05:08:18;99900.55;;;7.47;79.25
76726;BME280;65651;53.154;17.916;2023-04-25T05:11:08;99901.86;;;7.45;79.06
76726;BME280;65651;53.154;17.916;2023-04-25T05:13:54;99898.48;;;7.44;79.19
76726;BME280;65651;53.154;17.916;2023-04-25T05:16:42;99901.91;;;7.46;79.31
76726;BME280;65651;53.154;17.916;2023-04-25T05:19:28;99904.32;;;7.48;79.20
76726;BME280;65651;53.154;17.916;2023-04-25T05:22:13;99909.22;;;7.55;78.96
76726;BME280;65651;53.154;17.916;2023-04-25T05:25:09;99907.63;;;7.65;79.01
76726;BME280;65651;53.154;17.916;2023-04-25T05:27:56;99907.77;;;7.81;78.66
76726;BME280;65651;53.154;17.916;2023-04-25T05:30:41;99908.42;;;7.99;78.58
76726;BME280;65651;53.154;17.916;2023-04-25T05:33:29;99903.73;;;8.15;78.58
76726;BME280;65651;53.154;17.916;2023-04-25T05:35:56;99904.17;;;8.25;78.37
76726;BME280;65651;53.154;17.916;2023-04-25T05:38:24;99909.20;;;8.36;78.06
76726;BME280;65651;53.154;17.916;2023-04-25T05:41:11;99910.66;;;8.52;77.88
76726;BME280;65651;53.154;17.916;2023-04-25T05:43:49;99910.09;;;8.78;77.49
76726;BME280;65651;53.154;17.916;2023-04-25T05:46:37;99909.23;;;9.41;76.72
76726;BME280;65651;53.154;17.916;2023-04-25T05:49:23;99909.91;;;10.22;76.08
76726;BME280;65651;53.154;17.916;2023-04-25T05:51:56;99909.81;;;10.79;75.27
76726;BME280;65651;53.154;17.916;2023-04-25T05:54:36;99905.27;;;11.52;74.32
76726;BME280;65651;53.154;17.916;2023-04-25T05:57:03;99902.20;;;12.49;72.94
76726;BME280;65651;53.154;17.916;2023-04-25T05:59:31;99906.46;;;12.84;72.64
76726;BME280;65651;53.154;17.916;2023-04-25T06:01:59;99908.14;;;12.59;72.18
76726;BME280;65651;53.154;17.916;2023-04-25T06:04:28;99910.51;;;12.16;71.97
76726;BME280;65651;53.154;17.916;2023-04-25T06:06:55;99907.09;;;11.90;71.36
76726;BME280;65651;53.154;17.916;2023-04-25T06:09:23;99906.58;;;11.82;71.17
76726;BME280;65651;53.154;17.916;2023-04-25T06:11:50;99909.10;;;12.20;70.60
76726;BME280;65651;53.154;17.916;2023-04-25T06:14:17;99908.55;;;12.75;69.93
76726;BME280;65651;53.154;17.916;2023-04-25T06:16:48;99904.41;;;13.37;68.64
76726;BME280;65651;53.154;17.916;2023-04-25T06:19:15;99907.48;;;14.53;67.55
76726;BME280;65651;53.154;17.916;2023-04-25T06:21:45;99900.96;;;16.46;65.06
76726;BME280;65651;53.154;17.916;2023-04-25T06:24:13;99902.02;;;18.14;62.11
76726;BME280;65651;53.154;17.916;2023-04-25T06:26:40;99906.91;;;19.60;60.42
76726;BME280;65651;53.154;17.916;2023-04-25T06:29:08;99904.08;;;20.76;59.52
76726;BME280;65651;53.154;17.916;2023-04-25T06:31:36;99904.28;;;21.79;57.43
76726;BME280;65651;53.154;17.916;2023-04-25T06:34:04;99900.34;;;23.11;55.08
76726;BME280;65651;53.154;17.916;2023-04-25T06:36:35;99895.09;;;24.46;53.38
76726;BME280;65651;53.154;17.916;2023-04-25T06:39:16;99893.71;;;25.43;51.59
76726;BME280;65651;53.154;17.916;2023-04-25T06:41:44;99884.45;;;25.04;49.07
76726;BME280;65651;53.154;17.916;2023-04-25T06:44:31;99887.22;;;24.87;46.99
76726;BME280;65651;53.154;17.916;2023-04-25T06:46:59;99888.58;;;23.91;46.44
76726;BME280;65651;53.154;17.916;2023-04-25T06:49:26;99891.84;;;23.53;46.38
76726;BME280;65651;53.154;17.916;2023-04-25T06:51:54;99888.39;;;22.74;44.28
76726;BME280;65651;53.154;17.916;2023-04-25T06:54:21;99884.30;;;22.89;44.24
76726;BME280;65651;53.154;17.916;2023-04-25T06:57:00;99882.92;;;24.02;42.20
76726;BME280;65651;53.154;17.916;2023-04-25T06:59:28;99882.88;;;23.50;41.19
76726;BME280;65651;53.154;17.916;2023-04-25T07:01:56;99880.98;;;25.07;39.83
76726;BME280;65651;53.154;17.916;2023-04-25T07:04:25;99877.64;;;25.96;38.28
76726;BME280;65651;53.154;17.916;2023-04-25T07:06:56;99876.08;;;26.70;37.08
76726;BME280;65651;53.154;17.916;2023-04-25T07:09:29;99878.58;;;24.48;37.52
76726;BME280;65651;53.154;17.916;2023-04-25T07:12:00;99882.09;;;22.56;37.01
76726;BME280;65651;53.154;17.916;2023-04-25T07:14:34;99879.55;;;22.01;37.48
76726;BME280;65651;53.154;17.916;2023-04-25T07:17:01;99886.16;;;22.62;36.68
76726;BME280;65651;53.154;17.916;2023-04-25T07:19:30;99884.47;;;23.58;35.63
76726;BME280;65651;53.154;17.916;2023-04-25T07:21:59;99882.27;;;25.35;34.43
76726;BME280;65651;53.154;17.916;2023-04-25T07:24:27;99882.60;;;26.44;33.41
76726;BME280;65651;53.154;17.916;2023-04-25T07:26:55;99887.72;;;24.23;33.70
76726;BME280;65651;53.154;17.916;2023-04-25T07:29:22;99893.63;;;22.49;34.37
76726;BME280;65651;53.154;17.916;2023-04-25T07:31:49;99890.64;;;22.32;33.99
76726;BME280;65651;53.154;17.916;2023-04-25T07:34:17;99892.63;;;21.83;34.53
76726;BME280;65651;53.154;17.916;2023-04-25T07:36:45;99896.30;;;20.40;35.19
76726;BME280;65651;53.154;17.916;2023-04-25T07:39:12;99902.30;;;18.76;36.65
76726;BME280;65651;53.154;17.916;2023-04-25T07:41:40;99905.29;;;17.25;38.20
76726;BME280;65651;53.154;17.916;2023-04-25T07:44:07;99910.83;;;16.28;39.41
76726;BME280;65651;53.154;17.916;2023-04-25T07:46:35;99913.72;;;15.61;40.59
76726;BME280;65651;53.154;17.916;2023-04-25T07:49:03;99914.94;;;15.07;41.71
76726;BME280;65651;53.154;17.916;2023-04-25T07:51:31;99916.05;;;14.51;42.82
76726;BME280;65651;53.154;17.916;2023-04-25T07:54:01;99917.41;;;14.03;43.69
76726;BME280;65651;53.154;17.916;2023-04-25T07:56:29;99916.66;;;13.80;44.69
76726;BME280;65651;53.154;17.916;2023-04-25T07:58:57;99920.11;;;13.55;45.93
76726;BME280;65651;53.154;17.916;2023-04-25T08:01:25;99922.14;;;13.21;46.94
76726;BME280;65651;53.154;17.916;2023-04-25T08:03:57;99927.20;;;12.90;47.85
76726;BME280;65651;53.154;17.916;2023-04-25T08:06:35;99930.41;;;12.62;48.57
76726;BME280;65651;53.154;17.916;2023-04-25T08:09:14;99926.73;;;12.52;48.89
76726;BME280;65651;53.154;17.916;2023-04-25T08:11:42;99930.41;;;12.54;49.80
76726;BME280;65651;53.154;17.916;2023-04-25T08:14:12;99929.60;;;12.46;50.45
76726;BME280;65651;53.154;17.916;2023-04-25T08:16:40;99930.67;;;12.51;50.62
76726;BME280;65651;53.154;17.916;2023-04-25T08:19:10;99930.56;;;12.59;50.98
76726;BME280;65651;53.154;17.916;2023-04-25T08:21:38;99934.38;;;12.73;51.28
76726;BME280;65651;53.154;17.916;2023-04-25T08:24:08;99937.38;;;12.80;51.79
76726;BME280;65651;53.154;17.916;2023-04-25T08:26:37;99937.83;;;12.90;52.04
76726;BME280;65651;53.154;17.916;2023-04-25T08:29:05;99937.97;;;12.89;52.13
76726;BME280;65651;53.154;17.916;2023-04-25T08:31:36;99937.95;;;13.07;52.19
76726;BME280;65651;53.154;17.916;2023-04-25T08:34:04;99938.94;;;13.23;52.20
76726;BME280;65651;53.154;17.916;2023-04-25T08:36:44;99939.20;;;13.30;52.30
76726;BME280;65651;53.154;17.916;2023-04-25T08:39:19;99938.88;;;13.12;52.67
76726;BME280;65651;53.154;17.916;2023-04-25T08:42:07;99943.48;;;12.88;53.19
76726;BME280;65651;53.154;17.916;2023-04-25T08:44:35;99944.54;;;12.49;53.75
76726;BME280;65651;53.154;17.916;2023-04-25T08:47:04;99946.69;;;12.03;54.19
76726;BME280;65651;53.154;17.916;2023-04-25T08:49:35;99950.76;;;11.74;54.65
76726;BME280;65651;53.154;17.916;2023-04-25T08:52:04;99949.61;;;11.64;55.25
76726;BME280;65651;53.154;17.916;2023-04-25T08:54:34;99952.57;;;11.57;55.60
76726;BME280;65651;53.154;17.916;2023-04-25T08:57:03;99953.35;;;11.66;55.75
76726;BME280;65651;53.154;17.916;2023-04-25T08:59:32;99950.85;;;11.75;56.01
76726;BME280;65651;53.154;17.916;2023-04-25T09:02:00;99951.20;;;11.90;55.68
76726;BME280;65651;53.154;17.916;2023-04-25T09:04:30;99950.59;;;12.13;55.79
76726;BME280;65651;53.154;17.916;2023-04-25T09:06:58;99953.06;;;12.25;55.65
76726;BME280;65651;53.154;17.916;2023-04-25T09:09:26;99958.92;;;12.38;55.78
76726;BME280;65651;53.154;17.916;2023-04-25T09:11:54;99959.98;;;12.45;55.76
76726;BME280;65651;53.154;17.916;2023-04-25T09:14:23;99966.27;;;12.60;55.70
76726;BME280;65651;53.154;17.916;2023-04-25T09:17:07;99963.89;;;12.86;55.32
76726;BME280;65651;53.154;17.916;2023-04-25T09:20:07;99961.85;;;13.06;54.99
76726;BME280;65651;53.154;17.916;2023-04-25T09:22:36;99964.25;;;13.20;54.87
76726;BME280;65651;53.154;17.916;2023-04-25T09:25:09;99964.55;;;13.35;54.65
76726;BME280;65651;53.154;17.916;2023-04-25T09:27:49;99965.56;;;13.64;54.38
76726;BME280;65651;53.154;17.916;2023-04-25T09:30:29;99961.23;;;14.37;53.47
76726;BME280;65651;53.154;17.916;2023-04-25T09:33:08;99962.30;;;14.70;52.79
76726;BME280;65651;53.154;17.916;2023-04-25T09:35:38;99963.92;;;14.97;52.29
76726;BME280;65651;53.154;17.916;2023-04-25T09:38:11;99964.87;;;15.29;51.46
76726;BME280;65651;53.154;17.916;2023-04-25T09:40:54;99968.42;;;15.46;50.96
76726;BME280;65651;53.154;17.916;2023-04-25T09:43:45;99964.38;;;14.99;50.86
76726;BME280;65651;53.154;17.916;2023-04-25T09:46:14;99966.51;;;14.64;50.99
76726;BME280;65651;53.154;17.916;2023-04-25T09:48:50;99968.37;;;14.32;51.01
76726;BME280;65651;53.154;17.916;2023-04-25T09:51:25;99970.84;;;14.06;51.44
76726;BME280;65651;53.154;17.916;2023-04-25T09:53:54;99978.95;;;13.89;51.51
76726;BME280;65651;53.154;17.916;2023-04-25T09:56:43;99980.94;;;14.10;51.16
76726;BME280;65651;53.154;17.916;2023-04-25T09:59:12;99980.24;;;14.30;51.11
76726;BME280;65651;53.154;17.916;2023-04-25T10:01:41;99983.88;;;14.19;51.12
76726;BME280;65651;53.154;17.916;2023-04-25T10:04:18;99986.55;;;13.91;51.31
76726;BME280;65651;53.154;17.916;2023-04-25T10:07:07;99988.52;;;13.73;51.76
76726;BME280;65651;53.154;17.916;2023-04-25T10:09:37;99986.54;;;13.61;51.92
76726;BME280;65651;53.154;17.916;2023-04-25T10:12:07;99989.22;;;13.53;51.72
76726;BME280;65651;53.154;17.916;2023-04-25T10:14:35;99988.00;;;13.67;51.52
76726;BME280;65651;53.154;17.916;2023-04-25T10:17:03;99987.45;;;13.91;51.56
76726;BME280;65651;53.154;17.916;2023-04-25T10:19:31;99990.36;;;14.13;51.04
76726;BME280;65651;53.154;17.916;2023-04-25T10:22:08;99989.42;;;14.22;50.34
76726;BME280;65651;53.154;17.916;2023-04-25T10:24:39;99992.23;;;14.35;50.25
76726;BME280;65651;53.154;17.916;2023-04-25T10:27:07;99983.90;;;14.35;50.44
76726;BME280;65651;53.154;17.916;2023-04-25T10:29:35;99987.80;;;14.39;50.48
76726;BME280;65651;53.154;17.916;2023-04-25T10:32:04;99986.34;;;14.39;50.58
76726;BME280;65651;53.154;17.916;2023-04-25T10:34:45;99986.83;;;14.28;50.40
76726;BME280;65651;53.154;17.916;2023-04-25T10:37:15;99992.04;;;14.11;50.54
76726;BME280;65651;53.154;17.916;2023-04-25T10:39:43;99993.23;;;14.05;50.59
76726;BME280;65651;53.154;17.916;2023-04-25T10:42:11;99996.42;;;13.91;50.59
76726;BME280;65651;53.154;17.916;2023-04-25T10:44:38;99997.90;;;13.76;50.94
76726;BME280;65651;53.154;17.916;2023-04-25T10:47:07;99993.85;;;13.57;51.14
76726;BME280;65651;53.154;17.916;2023-04-25T10:49:41;99997.39;;;13.47;51.40
76726;BME280;65651;53.154;17.916;2023-04-25T10:52:16;99996.41;;;13.41;51.33
76726;BME280;65651;53.154;17.916;2023-04-25T10:54:52;100000.14;;;13.26;51.19
76726;BME280;65651;53.154;17.916;2023-04-25T11:00:22;99999.05;;;13.06;51.74
76726;BME280;65651;53.154;17.916;2023-04-25T11:02:53;99998.81;;;13.02;51.77
76726;BME280;65651;53.154;17.916;2023-04-25T11:07:55;100000.97;;;13.22;51.78
76726;BME280;65651;53.154;17.916;2023-04-25T11:10:31;99995.41;;;13.28;51.82
76726;BME280;65651;53.154;17.916;2023-04-25T11:12:58;100002.88;;;13.18;51.77
76726;BME280;65651;53.154;17.916;2023-04-25T11:15:27;100007.64;;;13.05;52.12
76726;BME280;65651;53.154;17.916;2023-04-25T11:17:55;100009.70;;;12.88;52.39
76726;BME280;65651;53.154;17.916;2023-04-25T11:20:25;100009.84;;;12.73;52.72
76726;BME280;65651;53.154;17.916;2023-04-25T11:22:53;100015.73;;;12.58;53.16
76726;BME280;65651;53.154;17.916;2023-04-25T11:25:22;100011.99;;;12.43;53.07
76726;BME280;65651;53.154;17.916;2023-04-25T11:27:53;100012.48;;;12.37;53.37
76726;BME280;65651;53.154;17.916;2023-04-25T11:30:22;100014.55;;;12.33;53.64
76726;BME280;65651;53.154;17.916;2023-04-25T11:32:51;100015.41;;;12.38;53.50
76726;BME280;65651;53.154;17.916;2023-04-25T11:35:19;100011.67;;;12.51;53.28
76726;BME280;65651;53.154;17.916;2023-04-25T11:37:49;100008.09;;;12.65;53.31
76726;BME280;65651;53.154;17.916;2023-04-25T11:40:20;100010.02;;;12.79;53.46
76726;BME280;65651;53.154;17.916;2023-04-25T11:42:47;100009.60;;;12.97;53.04
76726;BME280;65651;53.154;17.916;2023-04-25T11:45:15;100010.02;;;13.09;53.12
76726;BME280;65651;53.154;17.916;2023-04-25T11:47:42;100014.23;;;13.10;52.87
76726;BME280;65651;53.154;17.916;2023-04-25T11:50:10;100013.58;;;13.06;52.96
76726;BME280;65651;53.154;17.916;2023-04-25T11:52:43;100016.14;;;13.00;53.16
76726;BME280;65651;53.154;17.916;2023-04-25T11:55:15;100020.11;;;13.05;52.85
76726;BME280;65651;53.154;17.916;2023-04-25T11:57:44;100015.52;;;13.29;52.48
76726;BME280;65651;53.154;17.916;2023-04-25T12:02:45;100021.62;;;13.75;52.14
76726;BME280;65651;53.154;17.916;2023-04-25T12:05:14;100020.73;;;13.98;51.55
76726;BME280;65651;53.154;17.916;2023-04-25T12:07:45;100016.79;;;14.07;51.46
76726;BME280;65651;53.154;17.916;2023-04-25T12:10:14;100013.92;;;14.26;51.30
76726;BME280;65651;53.154;17.916;2023-04-25T12:12:44;100014.00;;;14.46;50.98
76726;BME280;65651;53.154;17.916;2023-04-25T12:15:15;100015.60;;;14.60;50.84
76726;BME280;65651;53.154;17.916;2023-04-25T12:17:45;100009.59;;;14.78;50.27
76726;BME280;65651;53.154;17.916;2023-04-25T12:20:18;100014.96;;;14.96;50.26
76726;BME280;65651;53.154;17.916;2023-04-25T12:22:51;100019.73;;;15.17;49.92
76726;BME280;65651;53.154;17.916;2023-04-25T12:25:54;100016.91;;;15.15;48.98
76726;BME280;65651;53.154;17.916;2023-04-25T12:28:24;100015.96;;;15.05;49.08
76726;BME280;65651;53.154;17.916;2023-04-25T12:33:32;100015.39;;;14.97;49.04
76726;BME280;65651;53.154;17.916;2023-04-25T12:36:01;100017.40;;;14.91;48.89
76726;BME280;65651;53.154;17.916;2023-04-25T12:38:36;100015.45;;;14.89;48.86
76726;BME280;65651;53.154;17.916;2023-04-25T12:41:04;100017.70;;;14.86;48.58
76726;BME280;65651;53.154;17.916;2023-04-25T12:43:34;100021.10;;;14.87;48.62
76726;BME280;65651;53.154;17.916;2023-04-25T12:46:02;100025.76;;;14.98;48.41
76726;BME280;65651;53.154;17.916;2023-04-25T12:48:30;100022.83;;;14.98;48.31
76726;BME280;65651;53.154;17.916;2023-04-25T12:50:57;100023.42;;;14.99;47.89
76726;BME280;65651;53.154;17.916;2023-04-25T12:53:24;100018.81;;;14.91;48.06
76726;BME280;65651;53.154;17.916;2023-04-25T12:55:52;100018.48;;;14.90;48.12
76726;BME280;65651;53.154;17.916;2023-04-25T12:58:19;100016.36;;;14.73;47.91
76726;BME280;65651;53.154;17.916;2023-04-25T13:00:47;100017.94;;;14.53;48.22
76726;BME280;65651;53.154;17.916;2023-04-25T13:03:14;100017.48;;;14.29;48.44
76726;BME280;65651;53.154;17.916;2023-04-25T13:05:42;100015.54;;;14.12;48.72
76726;BME280;65651;53.154;17.916;2023-04-25T13:08:09;100015.66;;;13.96;48.93
76726;BME280;65651;53.154;17.916;2023-04-25T13:10:37;100017.38;;;13.85;49.42
76726;BME280;65651;53.154;17.916;2023-04-25T13:13:06;100017.38;;;13.76;49.66
76726;BME280;65651;53.154;17.916;2023-04-25T13:15:33;100019.50;;;13.70;49.96
76726;BME280;65651;53.154;17.916;2023-04-25T13:18:01;100019.48;;;13.69;50.00
76726;BME280;65651;53.154;17.916;2023-04-25T13:20:28;100018.30;;;13.63;50.14
76726;BME280;65651;53.154;17.916;2023-04-25T13:22:55;100016.08;;;13.56;50.47
76726;BME280;65651;53.154;17.916;2023-04-25T13:25:22;100015.10;;;13.46;50.76